sensor_id;sensor_type;location;lat;lon;timestamp;P1;durP1;ratioP1;P2;durP2;ratioP2
67051;SDS011;53957;47.222;18.670;2023-03-23T00:02:42;6.57;;;5.20;;
67051;SDS011;53957;47.222;18.670;2023-03-23T00:05:45;8.32;;;5.85;;
67051;SDS011;53957;47.222;18.670;2023-03-23T00:08:52;6.03;;;5.40;;
67051;SDS011;53957;47.222;18.670;2023-03-23T00:12:01;9.60;;;6.15;;
67051;SDS011;53957;47.222;18.670;2023-03-23T00:15:07;5.97;;;4.75;;
67051;SDS011;53957;47.222;18.670;2023-03-23T00:18:11;5.60;;;4.85;;
67051;SDS011;53957;47.222;18.670;2023-03-23T00:21:22;11.52;;;5.90;;
67051;SDS011;53957;47.222;18.670;2023-03-23T00:24:37;6.50;;;5.35;;
67051;SDS011;53957;47.222;18.670;2023-03-23T00:27:39;6.43;;;5.10;;
67051;SDS011;53957;47.222;18.670;2023-03-23T00:31:05;6.00;;;4.47;;
67051;SDS011;53957;47.222;18.670;2023-03-23T00:34:10;8.52;;;4.70;;
67051;SDS011;53957;47.222;18.670;2023-03-23T00:37:14;7.03;;;5.30;;
67051;SDS011;53957;47.222;18.670;2023-03-23T00:40:17;7.22;;;5.30;;
67051;SDS011;53957;47.222;18.670;2023-03-23T00:43:20;6.30;;;4.70;;
67051;SDS011;53957;47.222;18.670;2023-03-23T00:46:26;5.35;;;4.28;;
67051;SDS011;53957;47.222;18.670;2023-03-23T00:49:29;6.25;;;4.85;;
67051;SDS011;53957;47.222;18.670;2023-03-23T00:52:31;5.00;;;4.20;;
67051;SDS011;53957;47.222;18.670;2023-03-23T00:55:33;9.30;;;5.15;;
67051;SDS011;53957;47.222;18.670;2023-03-23T00:58:35;5.18;;;4.30;;
67051;SDS011;53957;47.222;18.670;2023-03-23T01:01:37;6.10;;;5.22;;
67051;SDS011;53957;47.222;18.670;2023-03-23T01:04:39;5.97;;;4.65;;
67051;SDS011;53957;47.222;18.670;2023-03-23T01:07:50;6.82;;;4.72;;
67051;SDS011;53957;47.222;18.670;2023-03-23T01:11:01;7.72;;;5.15;;
67051;SDS011;53957;47.222;18.670;2023-03-23T01:14:07;9.35;;;4.45;;
67051;SDS011;53957;47.222;18.670;2023-03-23T01:17:09;16.33;;;5.32;;
67051;SDS011;53957;47.222;18.670;2023-03-23T01:20:14;5.95;;;4.60;;
67051;SDS011;53957;47.222;18.670;2023-03-23T01:23:16;10.70;;;4.50;;
67051;SDS011;53957;47.222;18.670;2023-03-23T01:26:20;7.53;;;5.10;;
67051;SDS011;53957;47.222;18.670;2023-03-23T01:29:24;5.70;;;4.93;;
67051;SDS011;53957;47.222;18.670;2023-03-23T01:32:28;6.22;;;4.95;;
67051;SDS011;53957;47.222;18.670;2023-03-23T12:21:35;6.20;;;2.03;;
67051;SDS011;53957;47.222;18.670;2023-03-23T12:35:40;2.37;;;2.17;;
67051;SDS011;53957;47.222;18.670;2023-03-23T12:50:01;3.72;;;2.33;;
67051;SDS011;53957;47.222;18.670;2023-03-23T12:53:42;3.62;;;2.05;;
67051;SDS011;53957;47.222;18.670;2023-03-23T13:00:33;2.00;;;1.90;;
67051;SDS011;53957;47.222;18.670;2023-03-23T13:03:53;2.03;;;1.92;;
67051;SDS011;53957;47.222;18.670;2023-03-23T13:07:22;2.37;;;2.17;;
67051;SDS011;53957;47.222;18.670;2023-03-23T13:10:39;6.20;;;1.90;;
67051;SDS011;53957;47.222;18.670;2023-03-23T13:13:50;2.25;;;2.05;;
67051;SDS011;53957;47.222;18.670;2023-03-23T13:24:21;2.45;;;2.25;;
67051;SDS011;53957;47.222;18.670;2023-03-23T13:27:28;2.33;;;1.92;;
67051;SDS011;53957;47.222;18.670;2023-03-23T13:30:31;3.40;;;1.90;;
67051;SDS011;53957;47.222;18.670;2023-03-23T13:33:50;14.27;;;2.50;;
67051;SDS011;53957;47.222;18.670;2023-03-23T13:40:33;2.00;;;1.80;;
67051;SDS011;53957;47.222;18.670;2023-03-23T13:43:41;1.85;;;1.75;;
67051;SDS011;53957;47.222;18.670;2023-03-23T13:46:53;2.10;;;1.90;;
67051;SDS011;53957;47.222;18.670;2023-03-23T13:50:13;2.33;;;1.65;;
67051;SDS011;53957;47.222;18.670;2023-03-23T13:57:24;5.68;;;1.60;;
67051;SDS011;53957;47.222;18.670;2023-03-23T14:00:46;3.47;;;1.90;;
67051;SDS011;53957;47.222;18.670;2023-03-23T14:04:16;1.90;;;1.80;;
67051;SDS011;53957;47.222;18.670;2023-03-23T14:07:19;1.98;;;1.75;;
67051;SDS011;53957;47.222;18.670;2023-03-23T14:40:17;2.10;;;2.00;;
67051;SDS011;53957;47.222;18.670;2023-03-23T14:43:21;2.15;;;2.00;;
67051;SDS011;53957;47.222;18.670;2023-03-23T14:46:43;1.85;;;1.75;;
67051;SDS011;53957;47.222;18.670;2023-03-23T14:50:21;1.70;;;1.60;;
67051;SDS011;53957;47.222;18.670;2023-03-23T14:53:32;2.05;;;1.85;;
67051;SDS011;53957;47.222;18.670;2023-03-23T14:56:37;4.50;;;2.10;;
67051;SDS011;53957;47.222;18.670;2023-03-23T14:59:58;4.18;;;1.98;;
67051;SDS011;53957;47.222;18.670;2023-03-23T15:03:06;2.12;;;1.92;;
67051;SDS011;53957;47.222;18.670;2023-03-23T15:06:33;8.02;;;3.12;;
67051;SDS011;53957;47.222;18.670;2023-03-23T15:09:39;3.53;;;1.95;;
67051;SDS011;53957;47.222;18.670;2023-03-23T15:12:44;1.92;;;1.83;;
67051;SDS011;53957;47.222;18.670;2023-03-23T15:15:47;4.32;;;2.20;;
67051;SDS011;53957;47.222;18.670;2023-03-23T15:19:16;6.03;;;2.10;;
67051;SDS011;53957;47.222;18.670;2023-03-23T15:22:25;3.92;;;1.67;;
67051;SDS011;53957;47.222;18.670;2023-03-23T15:25:34;5.07;;;2.20;;
67051;SDS011;53957;47.222;18.670;2023-03-23T15:28:49;2.70;;;2.00;;
67051;SDS011;53957;47.222;18.670;2023-03-23T15:31:56;2.53;;;2.33;;
67051;SDS011;53957;47.222;18.670;2023-03-23T15:34:59;4.03;;;2.10;;
67051;SDS011;53957;47.222;18.670;2023-03-23T15:38:29;4.15;;;3.45;;
67051;SDS011;53957;47.222;18.670;2023-03-23T15:41:53;2.50;;;2.30;;
67051;SDS011;53957;47.222;18.670;2023-03-23T15:45:19;4.37;;;4.07;;
67051;SDS011;53957;47.222;18.670;2023-03-23T15:48:27;3.05;;;2.85;;
67051;SDS011;53957;47.222;18.670;2023-03-23T15:51:30;2.00;;;1.90;;
67051;SDS011;53957;47.222;18.670;2023-03-23T15:54:35;2.25;;;1.90;;
67051;SDS011;53957;47.222;18.670;2023-03-23T15:57:36;2.60;;;2.30;;
67051;SDS011;53957;47.222;18.670;2023-03-23T16:00:39;1.80;;;1.70;;
67051;SDS011;53957;47.222;18.670;2023-03-23T16:06:57;1.95;;;1.85;;
67051;SDS011;53957;47.222;18.670;2023-03-23T16:10:06;2.17;;;2.08;;
67051;SDS011;53957;47.222;18.670;2023-03-23T16:13:15;4.93;;;2.10;;
67051;SDS011;53957;47.222;18.670;2023-03-23T16:16:22;6.05;;;3.70;;
67051;SDS011;53957;47.222;18.670;2023-03-23T16:19:31;31.52;;;18.48;;
67051;SDS011;53957;47.222;18.670;2023-03-23T16:22:34;11.05;;;7.50;;
67051;SDS011;53957;47.222;18.670;2023-03-23T16:25:37;11.23;;;3.55;;
67051;SDS011;53957;47.222;18.670;2023-03-23T16:28:41;11.95;;;5.87;;
67051;SDS011;53957;47.222;18.670;2023-03-23T16:31:51;6.35;;;4.53;;
67051;SDS011;53957;47.222;18.670;2023-03-23T16:34:55;3.55;;;3.25;;
67051;SDS011;53957;47.222;18.670;2023-03-23T16:37:57;2.85;;;2.55;;
67051;SDS011;53957;47.222;18.670;2023-03-23T16:41:10;4.15;;;2.17;;
67051;SDS011;53957;47.222;18.670;2023-03-23T16:44:13;2.00;;;1.90;;
67051;SDS011;53957;47.222;18.670;2023-03-23T16:47:16;2.22;;;2.10;;
67051;SDS011;53957;47.222;18.670;2023-03-23T16:50:20;2.40;;;2.20;;
67051;SDS011;53957;47.222;18.670;2023-03-23T16:53:23;2.47;;;2.28;;
67051;SDS011;53957;47.222;18.670;2023-03-23T16:56:26;6.22;;;2.17;;
67051;SDS011;53957;47.222;18.670;2023-03-23T16:59:29;2.05;;;1.90;;
67051;SDS011;53957;47.222;18.670;2023-03-23T17:02:32;2.37;;;2.03;;
67051;SDS011;53957;47.222;18.670;2023-03-23T17:05:36;21.83;;;8.15;;
67051;SDS011;53957;47.222;18.670;2023-03-23T17:08:56;13.43;;;8.60;;
67051;SDS011;53957;47.222;18.670;2023-03-23T17:11:59;15.70;;;9.45;;
67051;SDS011;53957;47.222;18.670;2023-03-23T17:15:02;7.80;;;5.87;;
67051;SDS011;53957;47.222;18.670;2023-03-23T17:18:27;8.05;;;3.90;;
67051;SDS011;53957;47.222;18.670;2023-03-23T17:21:50;3.67;;;3.35;;
67051;SDS011;53957;47.222;18.670;2023-03-23T17:24:53;5.90;;;3.47;;
67051;SDS011;53957;47.222;18.670;2023-03-23T17:27:56;3.33;;;3.05;;
67051;SDS011;53957;47.222;18.670;2023-03-23T17:31:08;7.15;;;2.92;;
67051;SDS011;53957;47.222;18.670;2023-03-23T17:34:11;2.65;;;2.45;;
67051;SDS011;53957;47.222;18.670;2023-03-23T17:37:14;8.48;;;2.80;;
67051;SDS011;53957;47.222;18.670;2023-03-23T17:40:40;4.55;;;2.50;;
67051;SDS011;53957;47.222;18.670;2023-03-23T17:43:43;4.53;;;2.78;;
67051;SDS011;53957;47.222;18.670;2023-03-23T17:46:46;13.05;;;3.87;;
67051;SDS011;53957;47.222;18.670;2023-03-23T17:49:50;4.53;;;3.22;;
67051;SDS011;53957;47.222;18.670;2023-03-23T17:52:52;5.55;;;3.20;;
67051;SDS011;53957;47.222;18.670;2023-03-23T17:55:56;4.28;;;3.03;;
67051;SDS011;53957;47.222;18.670;2023-03-23T17:58:59;5.40;;;3.97;;
67051;SDS011;53957;47.222;18.670;2023-03-23T18:02:02;8.63;;;3.60;;
67051;SDS011;53957;47.222;18.670;2023-03-23T18:05:06;5.47;;;3.67;;
67051;SDS011;53957;47.222;18.670;2023-03-23T18:08:10;5.43;;;3.95;;
67051;SDS011;53957;47.222;18.670;2023-03-23T18:11:14;7.37;;;4.70;;
67051;SDS011;53957;47.222;18.670;2023-03-23T18:14:22;8.85;;;4.45;;
67051;SDS011;53957;47.222;18.670;2023-03-23T18:17:25;46.58;;;21.95;;
67051;SDS011;53957;47.222;18.670;2023-03-23T18:20:29;100.82;;;42.50;;
67051;SDS011;53957;47.222;18.670;2023-03-23T18:23:37;25.27;;;14.00;;
67051;SDS011;53957;47.222;18.670;2023-03-23T18:26:58;7.75;;;6.05;;
67051;SDS011;53957;47.222;18.670;2023-03-23T18:30:02;7.75;;;4.55;;
67051;SDS011;53957;47.222;18.670;2023-03-23T18:33:06;4.65;;;4.25;;
67051;SDS011;53957;47.222;18.670;2023-03-23T18:36:10;4.85;;;4.35;;
67051;SDS011;53957;47.222;18.670;2023-03-23T18:39:33;5.72;;;4.35;;
67051;SDS011;53957;47.222;18.670;2023-03-23T18:42:37;8.32;;;5.10;;
67051;SDS011;53957;47.222;18.670;2023-03-23T18:45:47;6.22;;;4.40;;
67051;SDS011;53957;47.222;18.670;2023-03-23T18:48:57;10.20;;;5.20;;
67051;SDS011;53957;47.222;18.670;2023-03-23T18:52:00;7.15;;;4.93;;
67051;SDS011;53957;47.222;18.670;2023-03-23T18:55:03;7.00;;;4.45;;
67051;SDS011;53957;47.222;18.670;2023-03-23T18:58:06;6.82;;;5.03;;
67051;SDS011;53957;47.222;18.670;2023-03-23T19:01:11;5.53;;;4.40;;
67051;SDS011;53957;47.222;18.670;2023-03-23T19:04:16;5.62;;;4.93;;
67051;SDS011;53957;47.222;18.670;2023-03-23T19:07:24;7.47;;;4.60;;
67051;SDS011;53957;47.222;18.670;2023-03-23T19:10:42;5.70;;;4.55;;
67051;SDS011;53957;47.222;18.670;2023-03-23T19:13:48;5.50;;;4.25;;
67051;SDS011;53957;47.222;18.670;2023-03-23T19:17:03;5.30;;;4.80;;
67051;SDS011;53957;47.222;18.670;2023-03-23T19:20:07;4.60;;;4.20;;
67051;SDS011;53957;47.222;18.670;2023-03-23T19:23:24;8.32;;;4.60;;
67051;SDS011;53957;47.222;18.670;2023-03-23T19:26:34;9.23;;;4.28;;
67051;SDS011;53957;47.222;18.670;2023-03-23T19:29:39;6.12;;;4.70;;
67051;SDS011;53957;47.222;18.670;2023-03-23T19:33:02;7.37;;;4.32;;
67051;SDS011;53957;47.222;18.670;2023-03-23T20:57:16;7.87;;;5.60;;
67051;SDS011;53957;47.222;18.670;2023-03-23T21:00:23;7.90;;;5.43;;
67051;SDS011;53957;47.222;18.670;2023-03-23T21:03:32;9.27;;;6.28;;
67051;SDS011;53957;47.222;18.670;2023-03-23T21:06:40;12.37;;;6.20;;
67051;SDS011;53957;47.222;18.670;2023-03-23T21:09:44;9.13;;;6.43;;
67051;SDS011;53957;47.222;18.670;2023-03-23T21:12:48;10.20;;;7.47;;
67051;SDS011;53957;47.222;18.670;2023-03-23T21:15:51;13.65;;;6.15;;
67051;SDS011;53957;47.222;18.670;2023-03-23T21:18:55;11.65;;;6.75;;
67051;SDS011;53957;47.222;18.670;2023-03-23T21:21:58;8.57;;;6.72;;
67051;SDS011;53957;47.222;18.670;2023-03-23T21:25:10;9.00;;;6.32;;
67051;SDS011;53957;47.222;18.670;2023-03-23T21:28:13;11.55;;;7.37;;
67051;SDS011;53957;47.222;18.670;2023-03-23T21:31:18;8.23;;;6.87;;
67051;SDS011;53957;47.222;18.670;2023-03-23T21:34:24;9.05;;;7.37;;
67051;SDS011;53957;47.222;18.670;2023-03-23T21:37:28;13.50;;;7.03;;
67051;SDS011;53957;47.222;18.670;2023-03-23T21:40:54;7.78;;;6.72;;
67051;SDS011;53957;47.222;18.670;2023-03-23T21:44:00;8.05;;;6.62;;
67051;SDS011;53957;47.222;18.670;2023-03-23T21:47:06;10.80;;;6.93;;
67051;SDS011;53957;47.222;18.670;2023-03-23T21:50:11;14.50;;;7.00;;
67051;SDS011;53957;47.222;18.670;2023-03-23T21:53:15;8.10;;;6.65;;
67051;SDS011;53957;47.222;18.670;2023-03-23T21:56:22;9.65;;;6.57;;
67051;SDS011;53957;47.222;18.670;2023-03-23T21:59:27;8.77;;;6.55;;
67051;SDS011;53957;47.222;18.670;2023-03-23T22:02:50;8.93;;;6.68;;
67051;SDS011;53957;47.222;18.670;2023-03-23T22:05:53;7.95;;;6.60;;
67051;SDS011;53957;47.222;18.670;2023-03-23T22:08:56;8.68;;;6.82;;
67051;SDS011;53957;47.222;18.670;2023-03-23T22:12:00;8.00;;;6.50;;
67051;SDS011;53957;47.222;18.670;2023-03-23T22:15:05;9.25;;;6.95;;
67051;SDS011;53957;47.222;18.670;2023-03-23T22:18:10;19.90;;;6.80;;
67051;SDS011;53957;47.222;18.670;2023-03-23T22:21:14;12.20;;;7.12;;
67051;SDS011;53957;47.222;18.670;2023-03-23T22:24:18;7.93;;;6.28;;
67051;SDS011;53957;47.222;18.670;2023-03-23T22:27:25;7.60;;;6.72;;
67051;SDS011;53957;47.222;18.670;2023-03-23T22:30:29;7.50;;;6.57;;
67051;SDS011;53957;47.222;18.670;2023-03-23T22:33:36;12.13;;;6.65;;
67051;SDS011;53957;47.222;18.670;2023-03-23T22:36:40;7.90;;;6.65;;
67051;SDS011;53957;47.222;18.670;2023-03-23T22:39:43;11.00;;;6.43;;
67051;SDS011;53957;47.222;18.670;2023-03-23T22:42:46;9.43;;;7.18;;
67051;SDS011;53957;47.222;18.670;2023-03-23T22:45:49;9.30;;;6.95;;
67051;SDS011;53957;47.222;18.670;2023-03-23T22:48:53;14.65;;;7.35;;
67051;SDS011;53957;47.222;18.670;2023-03-23T22:51:56;7.90;;;7.10;;
67051;SDS011;53957;47.222;18.670;2023-03-23T22:55:00;7.80;;;6.78;;
67051;SDS011;53957;47.222;18.670;2023-03-23T22:58:03;10.57;;;7.43;;
67051;SDS011;53957;47.222;18.670;2023-03-23T23:01:10;8.35;;;6.97;;
67051;SDS011;53957;47.222;18.670;2023-03-23T23:04:15;11.25;;;7.55;;
67051;SDS011;53957;47.222;18.670;2023-03-23T23:07:18;10.43;;;7.15;;
67051;SDS011;53957;47.222;18.670;2023-03-23T23:10:22;8.90;;;8.00;;
67051;SDS011;53957;47.222;18.670;2023-03-23T23:13:25;12.63;;;8.02;;
67051;SDS011;53957;47.222;18.670;2023-03-23T23:16:29;20.20;;;8.23;;
67051;SDS011;53957;47.222;18.670;2023-03-23T23:19:33;8.57;;;7.10;;
67051;SDS011;53957;47.222;18.670;2023-03-23T23:22:36;9.57;;;7.20;;
67051;SDS011;53957;47.222;18.670;2023-03-23T23:25:39;9.93;;;7.50;;
67051;SDS011;53957;47.222;18.670;2023-03-23T23:28:43;15.20;;;9.02;;
67051;SDS011;53957;47.222;18.670;2023-03-23T23:31:47;10.32;;;8.15;;
67051;SDS011;53957;47.222;18.670;2023-03-23T23:34:50;10.55;;;7.75;;
67051;SDS011;53957;47.222;18.670;2023-03-23T23:37:54;10.70;;;7.82;;
67051;SDS011;53957;47.222;18.670;2023-03-23T23:40:57;14.57;;;8.35;;
67051;SDS011;53957;47.222;18.670;2023-03-23T23:44:00;9.63;;;7.93;;
67051;SDS011;53957;47.222;18.670;2023-03-23T23:47:04;12.93;;;8.45;;
67051;SDS011;53957;47.222;18.670;2023-03-23T23:50:09;11.20;;;8.43;;
67051;SDS011;53957;47.222;18.670;2023-03-23T23:53:13;10.50;;;7.80;;
67051;SDS011;53957;47.222;18.670;2023-03-23T23:56:16;10.55;;;8.43;;
67051;SDS011;53957;47.222;18.670;2023-03-23T23:59:20;12.63;;;8.65;;
